sensor_id;sensor_type;location;lat;lon;timestamp;P1;durP1;ratioP1;P2;durP2;ratioP2
17052;SDS011;8643;48.824;11.422;2023-02-01T00:01:46;9.57;;;5.00;;
17052;SDS011;8643;48.824;11.422;2023-02-01T00:04:15;9.93;;;4.93;;
17052;SDS011;8643;48.824;11.422;2023-02-01T00:06:44;11.60;;;5.33;;
17052;SDS011;8643;48.824;11.422;2023-02-01T00:09:12;9.50;;;5.30;;
17052;SDS011;8643;48.824;11.422;2023-02-01T00:11:41;10.93;;;5.43;;
17052;SDS011;8643;48.824;11.422;2023-02-01T00:14:11;12.43;;;4.77;;
17052;SDS011;8643;48.824;11.422;2023-02-01T00:16:40;10.80;;;4.27;;
17052;SDS011;8643;48.824;11.422;2023-02-01T00:19:10;14.03;;;5.83;;
17052;SDS011;8643;48.824;11.422;2023-02-01T00:21:42;13.60;;;5.17;;
17052;SDS011;8643;48.824;11.422;2023-02-01T00:24:11;10.10;;;5.17;;
17052;SDS011;8643;48.824;11.422;2023-02-01T00:26:41;13.03;;;5.53;;
17052;SDS011;8643;48.824;11.422;2023-02-01T00:29:15;9.40;;;4.33;;
17052;SDS011;8643;48.824;11.422;2023-02-01T00:31:46;12.00;;;5.73;;
17052;SDS011;8643;48.824;11.422;2023-02-01T00:34:17;9.27;;;4.80;;
17052;SDS011;8643;48.824;11.422;2023-02-01T00:36:47;10.30;;;5.70;;
17052;SDS011;8643;48.824;11.422;2023-02-01T00:39:15;10.37;;;4.77;;
17052;SDS011;8643;48.824;11.422;2023-02-01T00:41:44;11.50;;;5.47;;
17052;SDS011;8643;48.824;11.422;2023-02-01T00:44:16;11.80;;;5.47;;
17052;SDS011;8643;48.824;11.422;2023-02-01T00:46:44;10.87;;;5.90;;
17052;SDS011;8643;48.824;11.422;2023-02-01T00:49:13;10.60;;;5.33;;
17052;SDS011;8643;48.824;11.422;2023-02-01T00:51:42;9.03;;;5.20;;
17052;SDS011;8643;48.824;11.422;2023-02-01T00:54:10;11.13;;;5.40;;
17052;SDS011;8643;48.824;11.422;2023-02-01T00:56:38;12.53;;;5.37;;
17052;SDS011;8643;48.824;11.422;2023-02-01T00:59:07;11.47;;;5.47;;
17052;SDS011;8643;48.824;11.422;2023-02-01T01:01:40;10.80;;;5.57;;
17052;SDS011;8643;48.824;11.422;2023-02-01T01:04:08;11.40;;;5.67;;
17052;SDS011;8643;48.824;11.422;2023-02-01T01:06:37;10.97;;;5.60;;
17052;SDS011;8643;48.824;11.422;2023-02-01T01:09:06;11.87;;;6.10;;
17052;SDS011;8643;48.824;11.422;2023-02-01T01:11:36;13.60;;;6.93;;
17052;SDS011;8643;48.824;11.422;2023-02-01T01:14:06;12.77;;;5.97;;
17052;SDS011;8643;48.824;11.422;2023-02-01T01:16:39;13.30;;;6.63;;
17052;SDS011;8643;48.824;11.422;2023-02-01T01:19:11;10.80;;;5.70;;
17052;SDS011;8643;48.824;11.422;2023-02-01T01:21:40;12.87;;;5.80;;
17052;SDS011;8643;48.824;11.422;2023-02-01T01:24:09;11.23;;;6.20;;
17052;SDS011;8643;48.824;11.422;2023-02-01T01:26:37;11.27;;;5.73;;
17052;SDS011;8643;48.824;11.422;2023-02-01T01:29:06;10.73;;;5.47;;
17052;SDS011;8643;48.824;11.422;2023-02-01T01:31:37;11.60;;;5.70;;
17052;SDS011;8643;48.824;11.422;2023-02-01T01:34:07;10.30;;;4.83;;
17052;SDS011;8643;48.824;11.422;2023-02-01T01:36:36;13.83;;;6.50;;
17052;SDS011;8643;48.824;11.422;2023-02-01T01:39:04;12.43;;;5.97;;
17052;SDS011;8643;48.824;11.422;2023-02-01T01:41:34;10.63;;;5.30;;
17052;SDS011;8643;48.824;11.422;2023-02-01T01:47:30;9.10;;;5.70;;
17052;SDS011;8643;48.824;11.422;2023-02-01T01:50:06;10.30;;;5.47;;
17052;SDS011;8643;48.824;11.422;2023-02-01T01:52:39;9.97;;;5.30;;
17052;SDS011;8643;48.824;11.422;2023-02-01T01:55:13;9.00;;;4.87;;
17052;SDS011;8643;48.824;11.422;2023-02-01T01:57:45;9.37;;;4.83;;
17052;SDS011;8643;48.824;11.422;2023-02-01T02:00:21;8.20;;;4.20;;
17052;SDS011;8643;48.824;11.422;2023-02-01T02:02:57;8.93;;;4.50;;
17052;SDS011;8643;48.824;11.422;2023-02-01T02:05:31;9.07;;;4.97;;
17052;SDS011;8643;48.824;11.422;2023-02-01T02:07:59;9.83;;;4.30;;
17052;SDS011;8643;48.824;11.422;2023-02-01T02:10:29;7.70;;;4.43;;
17052;SDS011;8643;48.824;11.422;2023-02-01T02:13:12;7.47;;;3.97;;
17052;SDS011;8643;48.824;11.422;2023-02-01T02:15:45;7.53;;;4.00;;
17052;SDS011;8643;48.824;11.422;2023-02-01T02:18:33;8.00;;;4.43;;
17052;SDS011;8643;48.824;11.422;2023-02-01T02:21:17;6.83;;;4.20;;
17052;SDS011;8643;48.824;11.422;2023-02-01T02:24:18;8.00;;;4.03;;
17052;SDS011;8643;48.824;11.422;2023-02-01T02:27:10;6.43;;;3.70;;
17052;SDS011;8643;48.824;11.422;2023-02-01T02:30:02;7.40;;;3.80;;
17052;SDS011;8643;48.824;11.422;2023-02-01T02:36:21;7.10;;;3.30;;
17052;SDS011;8643;48.824;11.422;2023-02-01T02:39:04;5.80;;;3.40;;
17052;SDS011;8643;48.824;11.422;2023-02-01T02:41:46;6.47;;;3.53;;
17052;SDS011;8643;48.824;11.422;2023-02-01T02:45:00;4.50;;;2.77;;
17052;SDS011;8643;48.824;11.422;2023-02-01T02:47:54;6.27;;;3.20;;
17052;SDS011;8643;48.824;11.422;2023-02-01T02:50:32;4.67;;;2.60;;
17052;SDS011;8643;48.824;11.422;2023-02-01T02:53:29;5.07;;;2.43;;
17052;SDS011;8643;48.824;11.422;2023-02-01T02:56:22;4.63;;;2.70;;
17052;SDS011;8643;48.824;11.422;2023-02-01T02:59:12;5.93;;;3.13;;
17052;SDS011;8643;48.824;11.422;2023-02-01T03:02:04;4.93;;;3.10;;
17052;SDS011;8643;48.824;11.422;2023-02-01T03:04:53;6.00;;;3.20;;
17052;SDS011;8643;48.824;11.422;2023-02-01T03:07:49;7.30;;;3.20;;
17052;SDS011;8643;48.824;11.422;2023-02-01T03:10:37;5.20;;;2.57;;
17052;SDS011;8643;48.824;11.422;2023-02-01T03:13:18;5.97;;;3.07;;
17052;SDS011;8643;48.824;11.422;2023-02-01T03:15:59;4.03;;;2.70;;
17052;SDS011;8643;48.824;11.422;2023-02-01T03:18:36;5.80;;;2.90;;
17052;SDS011;8643;48.824;11.422;2023-02-01T03:21:13;5.93;;;2.70;;
17052;SDS011;8643;48.824;11.422;2023-02-01T03:23:50;5.07;;;2.40;;
17052;SDS011;8643;48.824;11.422;2023-02-01T03:26:26;5.73;;;2.67;;
17052;SDS011;8643;48.824;11.422;2023-02-01T03:29:00;5.17;;;2.40;;
17052;SDS011;8643;48.824;11.422;2023-02-01T03:31:41;4.67;;;2.40;;
17052;SDS011;8643;48.824;11.422;2023-02-01T03:34:10;4.27;;;2.20;;
17052;SDS011;8643;48.824;11.422;2023-02-01T03:36:51;4.23;;;2.20;;
17052;SDS011;8643;48.824;11.422;2023-02-01T03:39:29;5.60;;;2.37;;
17052;SDS011;8643;48.824;11.422;2023-02-01T03:42:04;3.90;;;2.10;;
17052;SDS011;8643;48.824;11.422;2023-02-01T03:44:41;3.80;;;2.33;;
17052;SDS011;8643;48.824;11.422;2023-02-01T03:47:23;2.77;;;1.93;;
17052;SDS011;8643;48.824;11.422;2023-02-01T03:49:59;3.77;;;2.13;;
17052;SDS011;8643;48.824;11.422;2023-02-01T03:52:35;5.37;;;2.57;;
17052;SDS011;8643;48.824;11.422;2023-02-01T03:55:12;4.83;;;2.37;;
17052;SDS011;8643;48.824;11.422;2023-02-01T03:57:45;5.17;;;2.27;;
17052;SDS011;8643;48.824;11.422;2023-02-01T04:00:22;4.30;;;2.47;;
17052;SDS011;8643;48.824;11.422;2023-02-01T04:02:55;4.30;;;2.43;;
17052;SDS011;8643;48.824;11.422;2023-02-01T04:05:24;4.47;;;2.40;;
17052;SDS011;8643;48.824;11.422;2023-02-01T04:08:00;4.77;;;2.67;;
17052;SDS011;8643;48.824;11.422;2023-02-01T04:10:30;3.73;;;2.33;;
17052;SDS011;8643;48.824;11.422;2023-02-01T04:12:58;3.30;;;2.00;;
17052;SDS011;8643;48.824;11.422;2023-02-01T04:15:31;5.47;;;2.50;;
17052;SDS011;8643;48.824;11.422;2023-02-01T04:18:00;4.43;;;2.50;;
17052;SDS011;8643;48.824;11.422;2023-02-01T04:20:29;3.73;;;2.20;;
17052;SDS011;8643;48.824;11.422;2023-02-01T04:22:57;4.10;;;2.40;;
17052;SDS011;8643;48.824;11.422;2023-02-01T04:25:30;4.03;;;2.40;;
17052;SDS011;8643;48.824;11.422;2023-02-01T04:27:58;5.23;;;2.27;;
17052;SDS011;8643;48.824;11.422;2023-02-01T04:30:27;6.20;;;2.60;;
17052;SDS011;8643;48.824;11.422;2023-02-01T04:32:56;4.07;;;2.13;;
17052;SDS011;8643;48.824;11.422;2023-02-01T04:35:24;4.23;;;2.33;;
17052;SDS011;8643;48.824;11.422;2023-02-01T04:37:53;4.07;;;2.20;;
17052;SDS011;8643;48.824;11.422;2023-02-01T04:40:21;3.47;;;2.13;;
17052;SDS011;8643;48.824;11.422;2023-02-01T04:42:51;3.80;;;2.20;;
17052;SDS011;8643;48.824;11.422;2023-02-01T04:45:20;4.93;;;2.37;;
17052;SDS011;8643;48.824;11.422;2023-02-01T04:47:48;4.10;;;2.50;;
17052;SDS011;8643;48.824;11.422;2023-02-01T04:50:17;5.20;;;2.77;;
17052;SDS011;8643;48.824;11.422;2023-02-01T04:52:47;5.63;;;2.67;;
17052;SDS011;8643;48.824;11.422;2023-02-01T04:55:15;4.67;;;2.93;;
17052;SDS011;8643;48.824;11.422;2023-02-01T04:57:44;4.63;;;2.63;;
17052;SDS011;8643;48.824;11.422;2023-02-01T05:00:14;4.77;;;2.43;;
17052;SDS011;8643;48.824;11.422;2023-02-01T05:02:44;4.63;;;3.00;;
17052;SDS011;8643;48.824;11.422;2023-02-01T05:05:12;4.83;;;2.50;;
17052;SDS011;8643;48.824;11.422;2023-02-01T05:07:41;4.90;;;3.00;;
17052;SDS011;8643;48.824;11.422;2023-02-01T05:10:10;4.70;;;3.03;;
17052;SDS011;8643;48.824;11.422;2023-02-01T05:12:38;6.47;;;3.00;;
17052;SDS011;8643;48.824;11.422;2023-02-01T05:15:25;5.43;;;2.80;;
17052;SDS011;8643;48.824;11.422;2023-02-01T05:17:54;6.73;;;3.30;;
17052;SDS011;8643;48.824;11.422;2023-02-01T05:20:22;4.33;;;2.60;;
17052;SDS011;8643;48.824;11.422;2023-02-01T05:22:51;5.17;;;2.83;;
17052;SDS011;8643;48.824;11.422;2023-02-01T05:25:23;8.97;;;3.90;;
17052;SDS011;8643;48.824;11.422;2023-02-01T05:27:52;7.03;;;3.97;;
17052;SDS011;8643;48.824;11.422;2023-02-01T05:30:21;8.90;;;3.80;;
17052;SDS011;8643;48.824;11.422;2023-02-01T05:32:51;6.40;;;3.33;;
17052;SDS011;8643;48.824;11.422;2023-02-01T05:35:21;8.43;;;3.43;;
17052;SDS011;8643;48.824;11.422;2023-02-01T05:37:49;10.60;;;3.97;;
17052;SDS011;8643;48.824;11.422;2023-02-01T05:40:18;7.87;;;3.63;;
17052;SDS011;8643;48.824;11.422;2023-02-01T05:42:50;11.70;;;3.97;;
17052;SDS011;8643;48.824;11.422;2023-02-01T05:45:19;10.80;;;4.63;;
17052;SDS011;8643;48.824;11.422;2023-02-01T05:47:48;9.20;;;3.90;;
17052;SDS011;8643;48.824;11.422;2023-02-01T05:50:21;8.97;;;4.07;;
17052;SDS011;8643;48.824;11.422;2023-02-01T05:52:55;7.97;;;4.07;;
17052;SDS011;8643;48.824;11.422;2023-02-01T05:55:24;7.10;;;2.83;;
17052;SDS011;8643;48.824;11.422;2023-02-01T05:57:55;4.63;;;2.80;;
17052;SDS011;8643;48.824;11.422;2023-02-01T06:00:24;7.17;;;3.90;;
17052;SDS011;8643;48.824;11.422;2023-02-01T06:02:53;6.83;;;3.80;;
17052;SDS011;8643;48.824;11.422;2023-02-01T06:05:23;4.73;;;2.80;;
17052;SDS011;8643;48.824;11.422;2023-02-01T06:07:52;5.07;;;3.00;;
17052;SDS011;8643;48.824;11.422;2023-02-01T06:10:21;5.07;;;2.57;;
17052;SDS011;8643;48.824;11.422;2023-02-01T06:12:50;6.80;;;2.80;;
17052;SDS011;8643;48.824;11.422;2023-02-01T06:15:19;4.30;;;2.40;;
17052;SDS011;8643;48.824;11.422;2023-02-01T06:17:47;4.63;;;2.70;;
17052;SDS011;8643;48.824;11.422;2023-02-01T06:20:16;4.00;;;2.33;;
17052;SDS011;8643;48.824;11.422;2023-02-01T06:22:46;4.43;;;2.63;;
17052;SDS011;8643;48.824;11.422;2023-02-01T06:25:15;5.67;;;2.70;;
17052;SDS011;8643;48.824;11.422;2023-02-01T06:27:44;5.63;;;2.50;;
17052;SDS011;8643;48.824;11.422;2023-02-01T06:30:12;5.90;;;3.23;;
17052;SDS011;8643;48.824;11.422;2023-02-01T06:32:43;10.67;;;5.03;;
17052;SDS011;8643;48.824;11.422;2023-02-01T06:35:12;5.37;;;3.13;;
17052;SDS011;8643;48.824;11.422;2023-02-01T06:37:42;4.40;;;2.87;;
17052;SDS011;8643;48.824;11.422;2023-02-01T06:40:13;5.70;;;3.20;;
17052;SDS011;8643;48.824;11.422;2023-02-01T06:42:42;6.67;;;3.10;;
17052;SDS011;8643;48.824;11.422;2023-02-01T06:45:10;5.07;;;2.90;;
17052;SDS011;8643;48.824;11.422;2023-02-01T06:47:39;5.10;;;3.13;;
17052;SDS011;8643;48.824;11.422;2023-02-01T06:50:09;5.77;;;3.60;;
17052;SDS011;8643;48.824;11.422;2023-02-01T06:52:38;4.50;;;3.03;;
17052;SDS011;8643;48.824;11.422;2023-02-01T06:55:07;5.57;;;3.03;;
17052;SDS011;8643;48.824;11.422;2023-02-01T06:57:37;6.27;;;3.00;;
17052;SDS011;8643;48.824;11.422;2023-02-01T07:00:06;5.17;;;3.03;;
17052;SDS011;8643;48.824;11.422;2023-02-01T07:02:36;6.20;;;3.87;;
17052;SDS011;8643;48.824;11.422;2023-02-01T07:05:05;5.93;;;3.87;;
17052;SDS011;8643;48.824;11.422;2023-02-01T07:07:34;4.97;;;3.30;;
17052;SDS011;8643;48.824;11.422;2023-02-01T07:10:02;5.60;;;3.37;;
17052;SDS011;8643;48.824;11.422;2023-02-01T07:12:31;4.47;;;3.03;;
17052;SDS011;8643;48.824;11.422;2023-02-01T07:15:01;6.47;;;2.67;;
17052;SDS011;8643;48.824;11.422;2023-02-01T07:17:30;5.43;;;2.87;;
17052;SDS011;8643;48.824;11.422;2023-02-01T07:19:59;4.00;;;2.90;;
17052;SDS011;8643;48.824;11.422;2023-02-01T07:22:28;5.57;;;3.67;;
17052;SDS011;8643;48.824;11.422;2023-02-01T07:24:56;4.97;;;3.00;;
17052;SDS011;8643;48.824;11.422;2023-02-01T07:27:25;5.50;;;3.03;;
17052;SDS011;8643;48.824;11.422;2023-02-01T07:29:53;6.00;;;3.47;;
17052;SDS011;8643;48.824;11.422;2023-02-01T07:32:23;6.37;;;2.93;;
17052;SDS011;8643;48.824;11.422;2023-02-01T07:34:51;11.70;;;5.17;;
17052;SDS011;8643;48.824;11.422;2023-02-01T07:37:20;5.50;;;2.90;;
17052;SDS011;8643;48.824;11.422;2023-02-01T07:39:50;6.87;;;3.80;;
17052;SDS011;8643;48.824;11.422;2023-02-01T07:42:19;6.00;;;3.37;;
17052;SDS011;8643;48.824;11.422;2023-02-01T07:44:47;5.97;;;3.53;;
17052;SDS011;8643;48.824;11.422;2023-02-01T07:47:15;4.80;;;2.50;;
17052;SDS011;8643;48.824;11.422;2023-02-01T07:49:45;7.57;;;4.30;;
17052;SDS011;8643;48.824;11.422;2023-02-01T07:52:14;4.73;;;3.20;;
17052;SDS011;8643;48.824;11.422;2023-02-01T07:54:43;7.63;;;4.20;;
17052;SDS011;8643;48.824;11.422;2023-02-01T07:57:11;5.27;;;3.30;;
17052;SDS011;8643;48.824;11.422;2023-02-01T07:59:40;6.00;;;3.53;;
17052;SDS011;8643;48.824;11.422;2023-02-01T08:02:37;6.27;;;3.50;;
17052;SDS011;8643;48.824;11.422;2023-02-01T08:05:08;6.23;;;3.63;;
17052;SDS011;8643;48.824;11.422;2023-02-01T08:07:37;6.27;;;3.57;;
17052;SDS011;8643;48.824;11.422;2023-02-01T08:10:05;8.37;;;4.10;;
17052;SDS011;8643;48.824;11.422;2023-02-01T08:12:37;5.47;;;3.57;;
17052;SDS011;8643;48.824;11.422;2023-02-01T08:15:08;6.50;;;2.83;;
17052;SDS011;8643;48.824;11.422;2023-02-01T08:17:37;6.60;;;3.53;;
17052;SDS011;8643;48.824;11.422;2023-02-01T08:20:09;8.23;;;4.17;;
17052;SDS011;8643;48.824;11.422;2023-02-01T08:22:40;6.23;;;3.10;;
17052;SDS011;8643;48.824;11.422;2023-02-01T08:25:08;7.93;;;4.40;;
17052;SDS011;8643;48.824;11.422;2023-02-01T08:27:38;8.37;;;3.67;;
17052;SDS011;8643;48.824;11.422;2023-02-01T08:30:07;6.90;;;3.67;;
17052;SDS011;8643;48.824;11.422;2023-02-01T08:32:37;8.77;;;4.23;;
17052;SDS011;8643;48.824;11.422;2023-02-01T08:35:05;8.67;;;4.70;;
17052;SDS011;8643;48.824;11.422;2023-02-01T08:37:36;9.17;;;5.40;;
17052;SDS011;8643;48.824;11.422;2023-02-01T08:40:05;7.97;;;4.13;;
17052;SDS011;8643;48.824;11.422;2023-02-01T08:42:36;9.77;;;5.43;;
17052;SDS011;8643;48.824;11.422;2023-02-01T08:45:20;13.77;;;5.20;;
17052;SDS011;8643;48.824;11.422;2023-02-01T08:47:55;8.07;;;4.27;;
17052;SDS011;8643;48.824;11.422;2023-02-01T08:50:26;7.70;;;4.60;;
17052;SDS011;8643;48.824;11.422;2023-02-01T08:52:55;11.63;;;5.13;;
17052;SDS011;8643;48.824;11.422;2023-02-01T08:55:23;11.57;;;5.83;;
17052;SDS011;8643;48.824;11.422;2023-02-01T08:57:52;9.50;;;5.50;;
17052;SDS011;8643;48.824;11.422;2023-02-01T09:00:21;16.63;;;7.40;;
17052;SDS011;8643;48.824;11.422;2023-02-01T09:02:50;10.20;;;5.23;;
17052;SDS011;8643;48.824;11.422;2023-02-01T09:05:19;14.60;;;6.03;;
17052;SDS011;8643;48.824;11.422;2023-02-01T09:07:50;8.47;;;4.97;;
17052;SDS011;8643;48.824;11.422;2023-02-01T09:10:18;10.63;;;5.40;;
17052;SDS011;8643;48.824;11.422;2023-02-01T09:13:00;9.73;;;4.53;;
17052;SDS011;8643;48.824;11.422;2023-02-01T09:15:29;9.63;;;4.80;;
17052;SDS011;8643;48.824;11.422;2023-02-01T09:17:58;12.70;;;6.70;;
17052;SDS011;8643;48.824;11.422;2023-02-01T09:20:26;12.13;;;6.30;;
17052;SDS011;8643;48.824;11.422;2023-02-01T09:22:57;10.33;;;6.00;;
17052;SDS011;8643;48.824;11.422;2023-02-01T09:25:26;11.37;;;4.60;;
17052;SDS011;8643;48.824;11.422;2023-02-01T09:27:54;8.17;;;4.60;;
17052;SDS011;8643;48.824;11.422;2023-02-01T09:30:23;9.30;;;4.50;;
17052;SDS011;8643;48.824;11.422;2023-02-01T09:32:51;7.57;;;4.30;;
17052;SDS011;8643;48.824;11.422;2023-02-01T09:35:20;10.17;;;4.90;;
17052;SDS011;8643;48.824;11.422;2023-02-01T09:37:48;7.40;;;4.63;;
17052;SDS011;8643;48.824;11.422;2023-02-01T09:40:19;11.40;;;6.97;;
17052;SDS011;8643;48.824;11.422;2023-02-01T09:42:54;7.53;;;4.37;;
17052;SDS011;8643;48.824;11.422;2023-02-01T09:45:52;9.37;;;5.23;;
17052;SDS011;8643;48.824;11.422;2023-02-01T09:48:32;13.30;;;5.80;;
17052;SDS011;8643;48.824;11.422;2023-02-01T09:51:06;8.57;;;4.50;;
17052;SDS011;8643;48.824;11.422;2023-02-01T09:53:48;9.93;;;4.33;;
17052;SDS011;8643;48.824;11.422;2023-02-01T09:56:32;8.10;;;3.80;;
17052;SDS011;8643;48.824;11.422;2023-02-01T09:59:09;10.90;;;5.13;;
17052;SDS011;8643;48.824;11.422;2023-02-01T10:01:51;8.00;;;4.73;;
17052;SDS011;8643;48.824;11.422;2023-02-01T10:04:20;7.20;;;3.67;;
17052;SDS011;8643;48.824;11.422;2023-02-01T10:06:56;8.67;;;4.50;;
17052;SDS011;8643;48.824;11.422;2023-02-01T10:09:43;6.97;;;4.03;;
17052;SDS011;8643;48.824;11.422;2023-02-01T10:12:30;8.20;;;4.30;;
17052;SDS011;8643;48.824;11.422;2023-02-01T10:15:32;7.77;;;4.10;;
17052;SDS011;8643;48.824;11.422;2023-02-01T10:18:30;6.70;;;4.27;;
17052;SDS011;8643;48.824;11.422;2023-02-01T10:21:42;7.60;;;4.43;;
17052;SDS011;8643;48.824;11.422;2023-02-01T10:24:36;6.63;;;3.87;;
17052;SDS011;8643;48.824;11.422;2023-02-01T10:27:12;6.90;;;3.50;;
17052;SDS011;8643;48.824;11.422;2023-02-01T10:29:49;7.07;;;4.00;;
17052;SDS011;8643;48.824;11.422;2023-02-01T10:32:27;9.47;;;4.40;;
17052;SDS011;8643;48.824;11.422;2023-02-01T10:35:08;11.33;;;5.10;;
17052;SDS011;8643;48.824;11.422;2023-02-01T10:37:43;6.20;;;3.60;;
17052;SDS011;8643;48.824;11.422;2023-02-01T10:40:15;7.47;;;3.87;;
17052;SDS011;8643;48.824;11.422;2023-02-01T10:42:48;11.10;;;4.57;;
17052;SDS011;8643;48.824;11.422;2023-02-01T10:45:22;7.90;;;3.77;;
17052;SDS011;8643;48.824;11.422;2023-02-01T10:47:55;7.47;;;3.97;;
17052;SDS011;8643;48.824;11.422;2023-02-01T10:50:31;9.80;;;4.83;;
17052;SDS011;8643;48.824;11.422;2023-02-01T10:53:06;7.00;;;4.10;;
17052;SDS011;8643;48.824;11.422;2023-02-01T10:55:48;8.67;;;4.67;;
17052;SDS011;8643;48.824;11.422;2023-02-01T10:58:19;8.67;;;3.80;;
17052;SDS011;8643;48.824;11.422;2023-02-01T11:01:00;9.43;;;4.40;;
17052;SDS011;8643;48.824;11.422;2023-02-01T11:03:33;6.93;;;4.20;;
17052;SDS011;8643;48.824;11.422;2023-02-01T11:06:11;9.60;;;4.10;;
17052;SDS011;8643;48.824;11.422;2023-02-01T11:08:56;8.57;;;4.00;;
17052;SDS011;8643;48.824;11.422;2023-02-01T11:11:27;9.70;;;4.43;;
17052;SDS011;8643;48.824;11.422;2023-02-01T11:13:57;10.23;;;3.53;;
17052;SDS011;8643;48.824;11.422;2023-02-01T11:16:30;9.53;;;3.70;;
17052;SDS011;8643;48.824;11.422;2023-02-01T11:19:03;9.17;;;4.20;;
17052;SDS011;8643;48.824;11.422;2023-02-01T11:21:32;6.87;;;4.17;;
17052;SDS011;8643;48.824;11.422;2023-02-01T11:24:04;9.83;;;4.77;;
17052;SDS011;8643;48.824;11.422;2023-02-01T11:26:45;10.17;;;5.07;;
17052;SDS011;8643;48.824;11.422;2023-02-01T11:29:14;9.83;;;4.77;;
17052;SDS011;8643;48.824;11.422;2023-02-01T11:31:49;12.40;;;4.57;;
17052;SDS011;8643;48.824;11.422;2023-02-01T11:34:20;10.13;;;4.53;;
17052;SDS011;8643;48.824;11.422;2023-02-01T11:36:53;10.23;;;5.20;;
17052;SDS011;8643;48.824;11.422;2023-02-01T11:39:30;11.57;;;4.90;;
17052;SDS011;8643;48.824;11.422;2023-02-01T11:42:03;14.10;;;4.77;;
17052;SDS011;8643;48.824;11.422;2023-02-01T11:44:42;11.53;;;4.80;;
17052;SDS011;8643;48.824;11.422;2023-02-01T11:47:21;9.47;;;4.50;;
17052;SDS011;8643;48.824;11.422;2023-02-01T11:49:54;11.13;;;5.00;;
17052;SDS011;8643;48.824;11.422;2023-02-01T11:58:34;15.37;;;5.97;;
17052;SDS011;8643;48.824;11.422;2023-02-01T12:04:48;10.77;;;4.97;;
17052;SDS011;8643;48.824;11.422;2023-02-01T12:07:51;9.10;;;5.07;;
17052;SDS011;8643;48.824;11.422;2023-02-01T12:10:47;9.70;;;3.97;;
17052;SDS011;8643;48.824;11.422;2023-02-01T12:13:38;8.43;;;3.00;;
17052;SDS011;8643;48.824;11.422;2023-02-01T12:16:23;13.80;;;3.77;;
17052;SDS011;8643;48.824;11.422;2023-02-01T12:19:17;7.13;;;3.90;;
17052;SDS011;8643;48.824;11.422;2023-02-01T12:22:18;9.43;;;3.73;;
17052;SDS011;8643;48.824;11.422;2023-02-01T12:25:15;9.60;;;4.50;;
17052;SDS011;8643;48.824;11.422;2023-02-01T12:31:18;12.43;;;5.27;;
17052;SDS011;8643;48.824;11.422;2023-02-01T12:34:14;8.87;;;4.50;;
17052;SDS011;8643;48.824;11.422;2023-02-01T12:36:58;13.20;;;5.33;;
17052;SDS011;8643;48.824;11.422;2023-02-01T12:39:45;10.90;;;4.87;;
17052;SDS011;8643;48.824;11.422;2023-02-01T12:42:29;9.70;;;5.00;;
17052;SDS011;8643;48.824;11.422;2023-02-01T12:45:09;7.67;;;4.47;;
17052;SDS011;8643;48.824;11.422;2023-02-01T12:47:47;10.50;;;5.20;;
17052;SDS011;8643;48.824;11.422;2023-02-01T12:50:22;12.63;;;5.27;;
17052;SDS011;8643;48.824;11.422;2023-02-01T12:53:02;14.60;;;5.67;;
17052;SDS011;8643;48.824;11.422;2023-02-01T12:55:48;10.70;;;6.23;;
17052;SDS011;8643;48.824;11.422;2023-02-01T12:58:21;14.73;;;5.67;;
17052;SDS011;8643;48.824;11.422;2023-02-01T13:00:58;13.67;;;7.57;;
17052;SDS011;8643;48.824;11.422;2023-02-01T13:03:34;9.87;;;5.50;;
17052;SDS011;8643;48.824;11.422;2023-02-01T13:06:08;11.33;;;5.57;;
17052;SDS011;8643;48.824;11.422;2023-02-01T13:08:45;11.77;;;5.50;;
17052;SDS011;8643;48.824;11.422;2023-02-01T13:11:24;12.33;;;6.37;;
17052;SDS011;8643;48.824;11.422;2023-02-01T13:14:00;10.60;;;5.33;;
17052;SDS011;8643;48.824;11.422;2023-02-01T13:16:35;14.00;;;6.17;;
17052;SDS011;8643;48.824;11.422;2023-02-01T13:19:10;10.60;;;5.57;;
17052;SDS011;8643;48.824;11.422;2023-02-01T13:21:46;10.03;;;5.50;;
17052;SDS011;8643;48.824;11.422;2023-02-01T13:24:26;10.13;;;5.60;;
17052;SDS011;8643;48.824;11.422;2023-02-01T13:27:04;7.17;;;3.83;;
17052;SDS011;8643;48.824;11.422;2023-02-01T13:29:39;9.43;;;4.27;;
17052;SDS011;8643;48.824;11.422;2023-02-01T13:32:23;15.57;;;5.13;;
17052;SDS011;8643;48.824;11.422;2023-02-01T13:39:22;21.10;;;6.90;;
17052;SDS011;8643;48.824;11.422;2023-02-01T13:42:48;11.87;;;4.83;;
17052;SDS011;8643;48.824;11.422;2023-02-01T13:45:21;15.03;;;5.90;;
17052;SDS011;8643;48.824;11.422;2023-02-01T13:47:55;16.27;;;5.23;;
17052;SDS011;8643;48.824;11.422;2023-02-01T13:50:30;9.13;;;4.57;;
17052;SDS011;8643;48.824;11.422;2023-02-01T13:53:04;9.27;;;4.20;;
17052;SDS011;8643;48.824;11.422;2023-02-01T13:55:55;14.47;;;4.40;;
17052;SDS011;8643;48.824;11.422;2023-02-01T13:58:33;11.33;;;3.37;;
17052;SDS011;8643;48.824;11.422;2023-02-01T14:04:44;11.97;;;3.00;;
17052;SDS011;8643;48.824;11.422;2023-02-01T14:07:18;10.43;;;2.40;;
17052;SDS011;8643;48.824;11.422;2023-02-01T14:09:50;10.73;;;2.80;;
17052;SDS011;8643;48.824;11.422;2023-02-01T14:15:19;8.33;;;2.47;;
17052;SDS011;8643;48.824;11.422;2023-02-01T14:17:51;6.77;;;2.57;;
17052;SDS011;8643;48.824;11.422;2023-02-01T14:23:18;8.90;;;2.90;;
17052;SDS011;8643;48.824;11.422;2023-02-01T14:26:18;11.27;;;3.20;;
17052;SDS011;8643;48.824;11.422;2023-02-01T14:28:50;8.63;;;3.33;;
17052;SDS011;8643;48.824;11.422;2023-02-01T14:34:17;9.17;;;3.30;;
17052;SDS011;8643;48.824;11.422;2023-02-01T14:36:58;16.33;;;3.00;;
17052;SDS011;8643;48.824;11.422;2023-02-01T14:39:31;13.30;;;2.57;;
17052;SDS011;8643;48.824;11.422;2023-02-01T14:42:20;7.03;;;2.47;;
17052;SDS011;8643;48.824;11.422;2023-02-01T14:44:54;10.27;;;2.97;;
17052;SDS011;8643;48.824;11.422;2023-02-01T14:47:44;7.07;;;2.63;;
17052;SDS011;8643;48.824;11.422;2023-02-01T14:50:20;8.40;;;2.40;;
17052;SDS011;8643;48.824;11.422;2023-02-01T14:53:13;8.67;;;3.30;;
17052;SDS011;8643;48.824;11.422;2023-02-01T14:55:51;9.97;;;2.97;;
17052;SDS011;8643;48.824;11.422;2023-02-01T14:58:31;9.07;;;3.27;;
17052;SDS011;8643;48.824;11.422;2023-02-01T15:01:14;17.93;;;3.77;;
17052;SDS011;8643;48.824;11.422;2023-02-01T15:03:50;8.40;;;3.27;;
17052;SDS011;8643;48.824;11.422;2023-02-01T15:06:30;11.50;;;3.10;;
17052;SDS011;8643;48.824;11.422;2023-02-01T15:09:09;11.97;;;3.00;;
17052;SDS011;8643;48.824;11.422;2023-02-01T15:11:58;5.83;;;2.30;;
17052;SDS011;8643;48.824;11.422;2023-02-01T15:14:31;10.40;;;2.37;;
17052;SDS011;8643;48.824;11.422;2023-02-01T15:17:15;8.77;;;2.23;;
17052;SDS011;8643;48.824;11.422;2023-02-01T15:19:55;11.67;;;2.87;;
17052;SDS011;8643;48.824;11.422;2023-02-01T15:22:26;8.50;;;2.27;;
17052;SDS011;8643;48.824;11.422;2023-02-01T15:24:59;9.57;;;2.57;;
17052;SDS011;8643;48.824;11.422;2023-02-01T15:27:28;8.67;;;2.40;;
17052;SDS011;8643;48.824;11.422;2023-02-01T15:30:05;11.40;;;3.77;;
17052;SDS011;8643;48.824;11.422;2023-02-01T15:32:36;6.63;;;2.87;;
17052;SDS011;8643;48.824;11.422;2023-02-01T15:38:19;13.73;;;4.30;;
17052;SDS011;8643;48.824;11.422;2023-02-01T15:41:00;10.40;;;2.70;;
17052;SDS011;8643;48.824;11.422;2023-02-01T15:43:35;10.20;;;2.13;;
17052;SDS011;8643;48.824;11.422;2023-02-01T15:46:08;8.93;;;2.30;;
17052;SDS011;8643;48.824;11.422;2023-02-01T15:48:43;10.47;;;2.60;;
17052;SDS011;8643;48.824;11.422;2023-02-01T15:51:17;8.20;;;2.40;;
17052;SDS011;8643;48.824;11.422;2023-02-01T15:53:49;5.63;;;2.43;;
17052;SDS011;8643;48.824;11.422;2023-02-01T15:56:24;11.57;;;3.60;;
17052;SDS011;8643;48.824;11.422;2023-02-01T15:58:59;8.33;;;1.90;;
17052;SDS011;8643;48.824;11.422;2023-02-01T16:01:34;9.97;;;2.73;;
17052;SDS011;8643;48.824;11.422;2023-02-01T16:04:12;9.27;;;2.50;;
17052;SDS011;8643;48.824;11.422;2023-02-01T16:06:47;9.57;;;3.13;;
17052;SDS011;8643;48.824;11.422;2023-02-01T16:09:19;7.87;;;2.10;;